sensor_id;sensor_type;location;lat;lon;timestamp;P1;durP1;ratioP1;P2;durP2;ratioP2
4933;SDS011;2482;49.154;8.254;2024-02-16T00:02:10;6.93;;;5.00;;
4933;SDS011;2482;49.154;8.254;2024-02-16T00:04:46;8.37;;;5.50;;
4933;SDS011;2482;49.154;8.254;2024-02-16T00:07:29;10.70;;;6.00;;
4933;SDS011;2482;49.154;8.254;2024-02-16T00:10:07;8.47;;;5.67;;
4933;SDS011;2482;49.154;8.254;2024-02-16T00:12:39;7.20;;;5.40;;
4933;SDS011;2482;49.154;8.254;2024-02-16T00:15:09;6.80;;;4.77;;
4933;SDS011;2482;49.154;8.254;2024-02-16T00:17:40;9.23;;;5.50;;
4933;SDS011;2482;49.154;8.254;2024-02-16T00:20:15;7.57;;;5.37;;
4933;SDS011;2482;49.154;8.254;2024-02-16T00:22:43;6.57;;;4.90;;
4933;SDS011;2482;49.154;8.254;2024-02-16T00:25:16;8.33;;;4.43;;
4933;SDS011;2482;49.154;8.254;2024-02-16T00:27:45;7.40;;;5.30;;
4933;SDS011;2482;49.154;8.254;2024-02-16T00:30:13;5.70;;;4.50;;
4933;SDS011;2482;49.154;8.254;2024-02-16T00:32:48;9.40;;;5.00;;
4933;SDS011;2482;49.154;8.254;2024-02-16T00:35:30;8.90;;;5.63;;
4933;SDS011;2482;49.154;8.254;2024-02-16T00:38:10;8.63;;;4.90;;
4933;SDS011;2482;49.154;8.254;2024-02-16T00:40:45;8.07;;;4.73;;
4933;SDS011;2482;49.154;8.254;2024-02-16T00:43:16;5.83;;;4.20;;
4933;SDS011;2482;49.154;8.254;2024-02-16T00:45:55;8.50;;;4.10;;
4933;SDS011;2482;49.154;8.254;2024-02-16T00:48:28;6.23;;;3.80;;
4933;SDS011;2482;49.154;8.254;2024-02-16T00:51:00;8.97;;;4.27;;
4933;SDS011;2482;49.154;8.254;2024-02-16T00:53:30;5.77;;;3.70;;
4933;SDS011;2482;49.154;8.254;2024-02-16T00:56:07;6.67;;;3.77;;
4933;SDS011;2482;49.154;8.254;2024-02-16T00:58:35;5.73;;;4.13;;
4933;SDS011;2482;49.154;8.254;2024-02-16T01:01:09;7.70;;;4.40;;
4933;SDS011;2482;49.154;8.254;2024-02-16T01:03:45;5.80;;;3.83;;
4933;SDS011;2482;49.154;8.254;2024-02-16T01:06:19;6.53;;;4.30;;
4933;SDS011;2482;49.154;8.254;2024-02-16T01:08:47;7.27;;;3.77;;
4933;SDS011;2482;49.154;8.254;2024-02-16T01:11:16;7.17;;;4.07;;
4933;SDS011;2482;49.154;8.254;2024-02-16T01:13:56;5.03;;;3.40;;
4933;SDS011;2482;49.154;8.254;2024-02-16T01:16:35;10.20;;;4.13;;
4933;SDS011;2482;49.154;8.254;2024-02-16T01:19:05;4.87;;;3.53;;
4933;SDS011;2482;49.154;8.254;2024-02-16T01:21:35;5.30;;;3.87;;
4933;SDS011;2482;49.154;8.254;2024-02-16T01:24:17;7.30;;;4.00;;
4933;SDS011;2482;49.154;8.254;2024-02-16T01:26:59;6.10;;;3.60;;
4933;SDS011;2482;49.154;8.254;2024-02-16T01:29:34;5.73;;;3.50;;
4933;SDS011;2482;49.154;8.254;2024-02-16T01:32:02;6.93;;;3.70;;
4933;SDS011;2482;49.154;8.254;2024-02-16T01:34:31;8.00;;;3.50;;
4933;SDS011;2482;49.154;8.254;2024-02-16T01:37:09;4.53;;;3.37;;
4933;SDS011;2482;49.154;8.254;2024-02-16T01:39:46;5.10;;;3.67;;
4933;SDS011;2482;49.154;8.254;2024-02-16T01:42:14;6.80;;;3.90;;
4933;SDS011;2482;49.154;8.254;2024-02-16T01:44:48;8.93;;;4.00;;
4933;SDS011;2482;49.154;8.254;2024-02-16T01:47:16;5.93;;;3.80;;
4933;SDS011;2482;49.154;8.254;2024-02-16T01:49:49;7.37;;;3.80;;
4933;SDS011;2482;49.154;8.254;2024-02-16T01:52:22;5.90;;;3.00;;
4933;SDS011;2482;49.154;8.254;2024-02-16T01:55:00;7.27;;;4.30;;
4933;SDS011;2482;49.154;8.254;2024-02-16T01:57:31;10.93;;;3.50;;
4933;SDS011;2482;49.154;8.254;2024-02-16T02:00:24;4.47;;;3.40;;
4933;SDS011;2482;49.154;8.254;2024-02-16T02:02:58;6.70;;;3.73;;
4933;SDS011;2482;49.154;8.254;2024-02-16T02:05:27;6.70;;;3.17;;
4933;SDS011;2482;49.154;8.254;2024-02-16T02:08:08;5.33;;;3.87;;
4933;SDS011;2482;49.154;8.254;2024-02-16T02:10:43;7.50;;;4.13;;
4933;SDS011;2482;49.154;8.254;2024-02-16T02:13:18;4.50;;;3.47;;
4933;SDS011;2482;49.154;8.254;2024-02-16T02:15:49;6.67;;;3.40;;
4933;SDS011;2482;49.154;8.254;2024-02-16T02:18:18;5.63;;;4.07;;
4933;SDS011;2482;49.154;8.254;2024-02-16T02:21:00;4.53;;;3.60;;
4933;SDS011;2482;49.154;8.254;2024-02-16T02:23:34;6.37;;;3.93;;
4933;SDS011;2482;49.154;8.254;2024-02-16T02:26:07;9.20;;;4.37;;
4933;SDS011;2482;49.154;8.254;2024-02-16T02:28:46;8.00;;;4.23;;
4933;SDS011;2482;49.154;8.254;2024-02-16T02:31:14;8.33;;;4.70;;
4933;SDS011;2482;49.154;8.254;2024-02-16T02:36:29;7.57;;;4.13;;
4933;SDS011;2482;49.154;8.254;2024-02-16T02:39:03;7.83;;;4.10;;
4933;SDS011;2482;49.154;8.254;2024-02-16T02:41:37;6.43;;;3.83;;
4933;SDS011;2482;49.154;8.254;2024-02-16T02:44:07;3.80;;;3.50;;
4933;SDS011;2482;49.154;8.254;2024-02-16T02:46:36;4.50;;;3.53;;
4933;SDS011;2482;49.154;8.254;2024-02-16T02:49:10;5.80;;;4.40;;
4933;SDS011;2482;49.154;8.254;2024-02-16T02:51:53;6.33;;;4.10;;
4933;SDS011;2482;49.154;8.254;2024-02-16T02:54:29;8.23;;;3.83;;
4933;SDS011;2482;49.154;8.254;2024-02-16T02:57:02;4.73;;;3.93;;
4933;SDS011;2482;49.154;8.254;2024-02-16T02:59:31;7.00;;;3.80;;
4933;SDS011;2482;49.154;8.254;2024-02-16T03:02:05;6.13;;;4.20;;
4933;SDS011;2482;49.154;8.254;2024-02-16T03:04:41;14.07;;;4.13;;
4933;SDS011;2482;49.154;8.254;2024-02-16T03:07:25;7.37;;;4.07;;
4933;SDS011;2482;49.154;8.254;2024-02-16T03:09:58;8.33;;;5.03;;
4933;SDS011;2482;49.154;8.254;2024-02-16T03:12:31;5.80;;;4.47;;
4933;SDS011;2482;49.154;8.254;2024-02-16T03:14:59;9.43;;;4.70;;
4933;SDS011;2482;49.154;8.254;2024-02-16T03:17:27;6.10;;;3.87;;
4933;SDS011;2482;49.154;8.254;2024-02-16T03:20:00;6.47;;;4.73;;
4933;SDS011;2482;49.154;8.254;2024-02-16T03:22:33;8.50;;;5.53;;
4933;SDS011;2482;49.154;8.254;2024-02-16T03:25:10;8.27;;;5.40;;
4933;SDS011;2482;49.154;8.254;2024-02-16T03:27:39;8.27;;;4.97;;
4933;SDS011;2482;49.154;8.254;2024-02-16T03:30:08;12.93;;;6.03;;
4933;SDS011;2482;49.154;8.254;2024-02-16T03:32:42;9.00;;;5.97;;
4933;SDS011;2482;49.154;8.254;2024-02-16T03:35:23;8.70;;;5.53;;
4933;SDS011;2482;49.154;8.254;2024-02-16T03:37:53;8.70;;;5.33;;
4933;SDS011;2482;49.154;8.254;2024-02-16T03:40:28;8.90;;;6.23;;
4933;SDS011;2482;49.154;8.254;2024-02-16T03:42:58;9.67;;;6.43;;
4933;SDS011;2482;49.154;8.254;2024-02-16T03:45:27;8.70;;;5.70;;
4933;SDS011;2482;49.154;8.254;2024-02-16T03:47:57;9.67;;;5.73;;
4933;SDS011;2482;49.154;8.254;2024-02-16T03:50:28;8.57;;;5.97;;
4933;SDS011;2482;49.154;8.254;2024-02-16T03:52:56;10.97;;;5.47;;
4933;SDS011;2482;49.154;8.254;2024-02-16T03:55:31;10.30;;;6.40;;
4933;SDS011;2482;49.154;8.254;2024-02-16T03:58:03;8.33;;;5.87;;
4933;SDS011;2482;49.154;8.254;2024-02-16T04:00:38;9.83;;;6.37;;
4933;SDS011;2482;49.154;8.254;2024-02-16T04:03:11;10.57;;;6.43;;
4933;SDS011;2482;49.154;8.254;2024-02-16T04:05:38;12.90;;;6.97;;
4933;SDS011;2482;49.154;8.254;2024-02-16T04:08:06;9.13;;;6.33;;
4933;SDS011;2482;49.154;8.254;2024-02-16T04:10:48;10.60;;;6.53;;
4933;SDS011;2482;49.154;8.254;2024-02-16T04:13:21;10.77;;;6.53;;
4933;SDS011;2482;49.154;8.254;2024-02-16T04:15:55;9.17;;;5.83;;
4933;SDS011;2482;49.154;8.254;2024-02-16T04:18:26;14.10;;;6.20;;
4933;SDS011;2482;49.154;8.254;2024-02-16T04:20:58;10.00;;;6.53;;
4933;SDS011;2482;49.154;8.254;2024-02-16T04:23:30;9.03;;;7.00;;
4933;SDS011;2482;49.154;8.254;2024-02-16T04:26:01;9.90;;;6.23;;
4933;SDS011;2482;49.154;8.254;2024-02-16T04:28:32;10.77;;;7.17;;
4933;SDS011;2482;49.154;8.254;2024-02-16T04:33:58;10.73;;;7.17;;
4933;SDS011;2482;49.154;8.254;2024-02-16T04:36:37;13.20;;;6.80;;
4933;SDS011;2482;49.154;8.254;2024-02-16T04:39:08;10.37;;;7.10;;
4933;SDS011;2482;49.154;8.254;2024-02-16T04:44:27;15.40;;;6.70;;
4933;SDS011;2482;49.154;8.254;2024-02-16T04:46:56;11.50;;;7.20;;
4933;SDS011;2482;49.154;8.254;2024-02-16T04:49:27;7.60;;;6.30;;
4933;SDS011;2482;49.154;8.254;2024-02-16T04:51:56;11.10;;;7.30;;
4933;SDS011;2482;49.154;8.254;2024-02-16T04:54:24;10.07;;;6.73;;
4933;SDS011;2482;49.154;8.254;2024-02-16T04:56:53;10.50;;;7.30;;
4933;SDS011;2482;49.154;8.254;2024-02-16T04:59:28;10.20;;;7.50;;
4933;SDS011;2482;49.154;8.254;2024-02-16T05:02:01;9.27;;;6.57;;
4933;SDS011;2482;49.154;8.254;2024-02-16T05:04:30;12.60;;;6.80;;
4933;SDS011;2482;49.154;8.254;2024-02-16T05:07:09;14.17;;;7.17;;
4933;SDS011;2482;49.154;8.254;2024-02-16T05:09:50;8.20;;;6.10;;
4933;SDS011;2482;49.154;8.254;2024-02-16T05:12:30;9.80;;;6.87;;
4933;SDS011;2482;49.154;8.254;2024-02-16T05:14:58;13.30;;;7.10;;
4933;SDS011;2482;49.154;8.254;2024-02-16T05:17:30;15.33;;;6.83;;
4933;SDS011;2482;49.154;8.254;2024-02-16T05:20:13;11.10;;;7.07;;
4933;SDS011;2482;49.154;8.254;2024-02-16T05:22:58;12.70;;;6.97;;
4933;SDS011;2482;49.154;8.254;2024-02-16T05:25:37;10.27;;;6.77;;
4933;SDS011;2482;49.154;8.254;2024-02-16T05:28:12;13.57;;;6.87;;
4933;SDS011;2482;49.154;8.254;2024-02-16T05:30:48;10.77;;;6.83;;
4933;SDS011;2482;49.154;8.254;2024-02-16T05:33:20;8.80;;;7.30;;
4933;SDS011;2482;49.154;8.254;2024-02-16T05:35:48;10.20;;;6.80;;
4933;SDS011;2482;49.154;8.254;2024-02-16T05:38:22;11.00;;;6.03;;
4933;SDS011;2482;49.154;8.254;2024-02-16T05:41:10;10.30;;;6.50;;
4933;SDS011;2482;49.154;8.254;2024-02-16T05:43:46;8.47;;;6.00;;
4933;SDS011;2482;49.154;8.254;2024-02-16T05:46:27;10.00;;;6.10;;
4933;SDS011;2482;49.154;8.254;2024-02-16T05:48:58;8.37;;;5.50;;
4933;SDS011;2482;49.154;8.254;2024-02-16T05:51:38;10.20;;;6.20;;
4933;SDS011;2482;49.154;8.254;2024-02-16T05:54:16;9.37;;;6.10;;
4933;SDS011;2482;49.154;8.254;2024-02-16T05:56:59;10.20;;;6.33;;
4933;SDS011;2482;49.154;8.254;2024-02-16T05:59:31;9.70;;;6.27;;
4933;SDS011;2482;49.154;8.254;2024-02-16T06:02:02;11.93;;;6.13;;
4933;SDS011;2482;49.154;8.254;2024-02-16T06:04:33;15.57;;;6.60;;
4933;SDS011;2482;49.154;8.254;2024-02-16T06:07:04;8.97;;;5.87;;
4933;SDS011;2482;49.154;8.254;2024-02-16T06:12:07;7.77;;;5.60;;
4933;SDS011;2482;49.154;8.254;2024-02-16T06:14:45;11.33;;;6.23;;
4933;SDS011;2482;49.154;8.254;2024-02-16T06:17:22;28.57;;;12.93;;
4933;SDS011;2482;49.154;8.254;2024-02-16T06:22:32;11.63;;;7.23;;
4933;SDS011;2482;49.154;8.254;2024-02-16T06:25:12;11.33;;;7.30;;
4933;SDS011;2482;49.154;8.254;2024-02-16T06:27:42;11.50;;;6.77;;
4933;SDS011;2482;49.154;8.254;2024-02-16T06:30:11;11.80;;;7.33;;
4933;SDS011;2482;49.154;8.254;2024-02-16T06:33:00;12.13;;;6.30;;
4933;SDS011;2482;49.154;8.254;2024-02-16T06:35:38;9.90;;;5.93;;
4933;SDS011;2482;49.154;8.254;2024-02-16T06:38:10;14.80;;;6.97;;
4933;SDS011;2482;49.154;8.254;2024-02-16T06:40:40;10.50;;;7.20;;
4933;SDS011;2482;49.154;8.254;2024-02-16T06:43:13;9.80;;;6.93;;
4933;SDS011;2482;49.154;8.254;2024-02-16T06:45:47;12.70;;;7.17;;
4933;SDS011;2482;49.154;8.254;2024-02-16T06:51:12;9.93;;;6.53;;
4933;SDS011;2482;49.154;8.254;2024-02-16T06:53:45;9.80;;;6.87;;
4933;SDS011;2482;49.154;8.254;2024-02-16T06:56:13;10.37;;;7.10;;
4933;SDS011;2482;49.154;8.254;2024-02-16T06:58:43;9.27;;;7.37;;
4933;SDS011;2482;49.154;8.254;2024-02-16T07:01:16;9.40;;;7.03;;
4933;SDS011;2482;49.154;8.254;2024-02-16T07:03:51;12.20;;;7.60;;
4933;SDS011;2482;49.154;8.254;2024-02-16T07:06:25;8.60;;;6.80;;
4933;SDS011;2482;49.154;8.254;2024-02-16T07:08:58;9.33;;;6.60;;
4933;SDS011;2482;49.154;8.254;2024-02-16T07:11:27;10.73;;;7.43;;
4933;SDS011;2482;49.154;8.254;2024-02-16T07:14:03;11.37;;;7.33;;
4933;SDS011;2482;49.154;8.254;2024-02-16T07:16:34;12.07;;;6.97;;
4933;SDS011;2482;49.154;8.254;2024-02-16T07:19:04;9.93;;;6.90;;
4933;SDS011;2482;49.154;8.254;2024-02-16T07:26:53;12.00;;;7.23;;
4933;SDS011;2482;49.154;8.254;2024-02-16T07:29:22;11.17;;;7.80;;
4933;SDS011;2482;49.154;8.254;2024-02-16T07:31:50;9.73;;;7.50;;
4933;SDS011;2482;49.154;8.254;2024-02-16T07:34:27;10.40;;;7.13;;
4933;SDS011;2482;49.154;8.254;2024-02-16T07:37:00;9.83;;;6.10;;
4933;SDS011;2482;49.154;8.254;2024-02-16T07:39:48;10.60;;;7.37;;
4933;SDS011;2482;49.154;8.254;2024-02-16T07:42:17;10.13;;;6.60;;
4933;SDS011;2482;49.154;8.254;2024-02-16T07:47:34;9.97;;;6.20;;
4933;SDS011;2482;49.154;8.254;2024-02-16T07:50:07;9.20;;;6.40;;
4933;SDS011;2482;49.154;8.254;2024-02-16T07:52:39;12.13;;;5.73;;
4933;SDS011;2482;49.154;8.254;2024-02-16T07:55:12;11.80;;;5.90;;
4933;SDS011;2482;49.154;8.254;2024-02-16T07:57:53;10.70;;;5.97;;
4933;SDS011;2482;49.154;8.254;2024-02-16T08:00:27;8.10;;;6.17;;
4933;SDS011;2482;49.154;8.254;2024-02-16T08:03:04;8.80;;;6.07;;
4933;SDS011;2482;49.154;8.254;2024-02-16T08:05:38;9.53;;;5.70;;
4933;SDS011;2482;49.154;8.254;2024-02-16T08:08:10;9.90;;;5.97;;
4933;SDS011;2482;49.154;8.254;2024-02-16T08:10:47;8.93;;;5.80;;
4933;SDS011;2482;49.154;8.254;2024-02-16T08:13:19;6.00;;;5.20;;
4933;SDS011;2482;49.154;8.254;2024-02-16T08:15:49;6.33;;;5.10;;
4933;SDS011;2482;49.154;8.254;2024-02-16T08:18:23;7.27;;;4.83;;
4933;SDS011;2482;49.154;8.254;2024-02-16T08:20:57;7.10;;;5.47;;
4933;SDS011;2482;49.154;8.254;2024-02-16T08:23:34;6.83;;;5.30;;
4933;SDS011;2482;49.154;8.254;2024-02-16T08:26:17;5.70;;;4.80;;
4933;SDS011;2482;49.154;8.254;2024-02-16T08:28:48;16.10;;;5.03;;
4933;SDS011;2482;49.154;8.254;2024-02-16T08:31:24;9.00;;;5.47;;
4933;SDS011;2482;49.154;8.254;2024-02-16T08:33:58;7.97;;;5.27;;
4933;SDS011;2482;49.154;8.254;2024-02-16T08:36:37;6.30;;;5.10;;
4933;SDS011;2482;49.154;8.254;2024-02-16T08:39:12;8.80;;;5.17;;
4933;SDS011;2482;49.154;8.254;2024-02-16T08:41:48;8.00;;;6.10;;
4933;SDS011;2482;49.154;8.254;2024-02-16T08:44:23;7.70;;;5.63;;
4933;SDS011;2482;49.154;8.254;2024-02-16T08:47:14;7.90;;;5.67;;
4933;SDS011;2482;49.154;8.254;2024-02-16T08:49:46;6.17;;;4.63;;
4933;SDS011;2482;49.154;8.254;2024-02-16T08:52:17;8.10;;;3.93;;
4933;SDS011;2482;49.154;8.254;2024-02-16T08:54:46;5.67;;;4.00;;
4933;SDS011;2482;49.154;8.254;2024-02-16T08:57:14;6.23;;;4.50;;
4933;SDS011;2482;49.154;8.254;2024-02-16T08:59:47;6.10;;;3.90;;
4933;SDS011;2482;49.154;8.254;2024-02-16T09:02:19;8.67;;;4.40;;
4933;SDS011;2482;49.154;8.254;2024-02-16T09:04:48;5.20;;;3.63;;
4933;SDS011;2482;49.154;8.254;2024-02-16T09:07:24;5.33;;;3.77;;
4933;SDS011;2482;49.154;8.254;2024-02-16T09:10:02;5.53;;;4.10;;
4933;SDS011;2482;49.154;8.254;2024-02-16T09:12:31;10.40;;;3.40;;
4933;SDS011;2482;49.154;8.254;2024-02-16T09:15:03;4.00;;;3.50;;
4933;SDS011;2482;49.154;8.254;2024-02-16T09:17:35;6.70;;;3.60;;
4933;SDS011;2482;49.154;8.254;2024-02-16T09:20:15;30.47;;;19.60;;
4933;SDS011;2482;49.154;8.254;2024-02-16T09:23:03;15.33;;;9.20;;
4933;SDS011;2482;49.154;8.254;2024-02-16T09:25:32;4.80;;;3.80;;
4933;SDS011;2482;49.154;8.254;2024-02-16T09:28:01;7.17;;;3.80;;
4933;SDS011;2482;49.154;8.254;2024-02-16T09:30:36;4.50;;;3.33;;
4933;SDS011;2482;49.154;8.254;2024-02-16T09:33:13;4.83;;;3.40;;
4933;SDS011;2482;49.154;8.254;2024-02-16T09:35:41;6.47;;;3.50;;
4933;SDS011;2482;49.154;8.254;2024-02-16T09:38:09;3.50;;;3.17;;
4933;SDS011;2482;49.154;8.254;2024-02-16T09:40:44;4.60;;;2.90;;
4933;SDS011;2482;49.154;8.254;2024-02-16T09:46:00;4.60;;;2.83;;
4933;SDS011;2482;49.154;8.254;2024-02-16T09:48:43;3.70;;;3.17;;
4933;SDS011;2482;49.154;8.254;2024-02-16T09:51:15;5.03;;;2.80;;
4933;SDS011;2482;49.154;8.254;2024-02-16T09:53:50;5.80;;;2.60;;
4933;SDS011;2482;49.154;8.254;2024-02-16T09:56:27;6.03;;;2.60;;
4933;SDS011;2482;49.154;8.254;2024-02-16T09:59:04;6.17;;;3.07;;
4933;SDS011;2482;49.154;8.254;2024-02-16T10:01:42;5.07;;;2.80;;
4933;SDS011;2482;49.154;8.254;2024-02-16T10:04:18;3.27;;;2.20;;
4933;SDS011;2482;49.154;8.254;2024-02-16T10:07:05;4.50;;;2.73;;
4933;SDS011;2482;49.154;8.254;2024-02-16T10:09:40;6.07;;;2.87;;
4933;SDS011;2482;49.154;8.254;2024-02-16T10:12:22;3.93;;;2.40;;
4933;SDS011;2482;49.154;8.254;2024-02-16T10:14:56;3.87;;;2.60;;
4933;SDS011;2482;49.154;8.254;2024-02-16T10:17:26;4.20;;;2.53;;
4933;SDS011;2482;49.154;8.254;2024-02-16T10:19:56;5.37;;;2.40;;
4933;SDS011;2482;49.154;8.254;2024-02-16T10:22:26;4.50;;;2.40;;
4933;SDS011;2482;49.154;8.254;2024-02-16T10:25:06;6.60;;;2.50;;
4933;SDS011;2482;49.154;8.254;2024-02-16T10:27:38;6.23;;;2.70;;
4933;SDS011;2482;49.154;8.254;2024-02-16T10:30:14;4.10;;;2.67;;
4933;SDS011;2482;49.154;8.254;2024-02-16T10:33:05;2.83;;;2.00;;
4933;SDS011;2482;49.154;8.254;2024-02-16T10:35:40;2.17;;;1.97;;
4933;SDS011;2482;49.154;8.254;2024-02-16T10:38:16;7.83;;;2.67;;
4933;SDS011;2482;49.154;8.254;2024-02-16T10:40:46;5.33;;;2.37;;
4933;SDS011;2482;49.154;8.254;2024-02-16T10:43:19;5.17;;;2.20;;
4933;SDS011;2482;49.154;8.254;2024-02-16T10:45:57;3.03;;;1.90;;
4933;SDS011;2482;49.154;8.254;2024-02-16T10:48:26;4.93;;;1.90;;
4933;SDS011;2482;49.154;8.254;2024-02-16T10:50:56;3.13;;;2.03;;
4933;SDS011;2482;49.154;8.254;2024-02-16T10:53:31;3.93;;;2.40;;
4933;SDS011;2482;49.154;8.254;2024-02-16T10:56:16;4.83;;;2.50;;
4933;SDS011;2482;49.154;8.254;2024-02-16T10:59:02;2.67;;;2.00;;
4933;SDS011;2482;49.154;8.254;2024-02-16T11:01:41;5.03;;;2.60;;
4933;SDS011;2482;49.154;8.254;2024-02-16T11:04:39;4.27;;;2.03;;
4933;SDS011;2482;49.154;8.254;2024-02-16T11:07:19;4.37;;;2.60;;
4933;SDS011;2482;49.154;8.254;2024-02-16T11:09:54;6.80;;;2.60;;
4933;SDS011;2482;49.154;8.254;2024-02-16T11:12:35;4.60;;;2.20;;
4933;SDS011;2482;49.154;8.254;2024-02-16T11:15:26;5.30;;;2.57;;
4933;SDS011;2482;49.154;8.254;2024-02-16T11:18:02;3.97;;;2.40;;
4933;SDS011;2482;49.154;8.254;2024-02-16T11:20:40;7.97;;;2.87;;
4933;SDS011;2482;49.154;8.254;2024-02-16T11:23:09;5.40;;;2.43;;
4933;SDS011;2482;49.154;8.254;2024-02-16T11:25:37;3.03;;;2.40;;
4933;SDS011;2482;49.154;8.254;2024-02-16T11:28:18;3.77;;;2.20;;
4933;SDS011;2482;49.154;8.254;2024-02-16T11:30:55;5.97;;;2.60;;
4933;SDS011;2482;49.154;8.254;2024-02-16T11:33:34;10.03;;;2.87;;
4933;SDS011;2482;49.154;8.254;2024-02-16T11:36:04;5.53;;;2.50;;
4933;SDS011;2482;49.154;8.254;2024-02-16T11:38:38;6.80;;;2.80;;
4933;SDS011;2482;49.154;8.254;2024-02-16T11:41:10;3.33;;;2.40;;
4933;SDS011;2482;49.154;8.254;2024-02-16T11:43:40;9.10;;;3.20;;
4933;SDS011;2482;49.154;8.254;2024-02-16T11:46:28;5.97;;;2.47;;
4933;SDS011;2482;49.154;8.254;2024-02-16T11:49:06;2.73;;;2.07;;
4933;SDS011;2482;49.154;8.254;2024-02-16T11:51:47;6.57;;;2.87;;
4933;SDS011;2482;49.154;8.254;2024-02-16T11:54:20;5.23;;;2.70;;
4933;SDS011;2482;49.154;8.254;2024-02-16T11:56:54;5.07;;;2.73;;
4933;SDS011;2482;49.154;8.254;2024-02-16T11:59:30;3.20;;;2.17;;
4933;SDS011;2482;49.154;8.254;2024-02-16T12:02:01;4.60;;;2.37;;
4933;SDS011;2482;49.154;8.254;2024-02-16T12:07:25;10.43;;;2.40;;
4933;SDS011;2482;49.154;8.254;2024-02-16T12:09:58;2.97;;;2.37;;
4933;SDS011;2482;49.154;8.254;2024-02-16T12:12:36;3.97;;;2.60;;
4933;SDS011;2482;49.154;8.254;2024-02-16T12:15:15;2.47;;;2.03;;
4933;SDS011;2482;49.154;8.254;2024-02-16T12:17:59;5.33;;;2.33;;
4933;SDS011;2482;49.154;8.254;2024-02-16T12:20:32;6.30;;;2.33;;
4933;SDS011;2482;49.154;8.254;2024-02-16T12:23:13;3.27;;;2.30;;
4933;SDS011;2482;49.154;8.254;2024-02-16T12:25:53;4.13;;;2.40;;
4933;SDS011;2482;49.154;8.254;2024-02-16T12:28:24;8.03;;;2.80;;
4933;SDS011;2482;49.154;8.254;2024-02-16T12:30:57;9.80;;;2.80;;
4933;SDS011;2482;49.154;8.254;2024-02-16T12:33:31;4.00;;;2.40;;
4933;SDS011;2482;49.154;8.254;2024-02-16T12:36:06;6.43;;;3.17;;
4933;SDS011;2482;49.154;8.254;2024-02-16T12:38:36;6.13;;;2.00;;
4933;SDS011;2482;49.154;8.254;2024-02-16T12:41:13;4.37;;;2.30;;
4933;SDS011;2482;49.154;8.254;2024-02-16T12:43:44;3.30;;;1.73;;
4933;SDS011;2482;49.154;8.254;2024-02-16T12:46:14;3.03;;;1.93;;
4933;SDS011;2482;49.154;8.254;2024-02-16T12:48:51;4.03;;;1.67;;
4933;SDS011;2482;49.154;8.254;2024-02-16T12:51:22;3.83;;;2.00;;
4933;SDS011;2482;49.154;8.254;2024-02-16T12:54:07;5.47;;;1.60;;
4933;SDS011;2482;49.154;8.254;2024-02-16T12:56:43;6.53;;;1.90;;
4933;SDS011;2482;49.154;8.254;2024-02-16T12:59:15;2.80;;;1.47;;
4933;SDS011;2482;49.154;8.254;2024-02-16T13:01:46;3.63;;;1.80;;
4933;SDS011;2482;49.154;8.254;2024-02-16T13:04:15;5.07;;;1.67;;
4933;SDS011;2482;49.154;8.254;2024-02-16T13:06:57;5.20;;;1.50;;
4933;SDS011;2482;49.154;8.254;2024-02-16T13:09:31;4.90;;;1.93;;
4933;SDS011;2482;49.154;8.254;2024-02-16T13:12:05;3.63;;;1.60;;
4933;SDS011;2482;49.154;8.254;2024-02-16T13:14:38;4.30;;;1.60;;
4933;SDS011;2482;49.154;8.254;2024-02-16T13:17:06;4.40;;;1.73;;
4933;SDS011;2482;49.154;8.254;2024-02-16T13:19:45;5.57;;;1.77;;
4933;SDS011;2482;49.154;8.254;2024-02-16T13:22:22;4.30;;;1.43;;
4933;SDS011;2482;49.154;8.254;2024-02-16T13:24:56;4.80;;;1.80;;
4933;SDS011;2482;49.154;8.254;2024-02-16T13:27:25;5.83;;;1.50;;
4933;SDS011;2482;49.154;8.254;2024-02-16T13:30:01;3.77;;;1.63;;
4933;SDS011;2482;49.154;8.254;2024-02-16T13:32:30;2.10;;;1.27;;
4933;SDS011;2482;49.154;8.254;2024-02-16T13:34:59;9.63;;;1.20;;
4933;SDS011;2482;49.154;8.254;2024-02-16T13:37:28;1.87;;;1.20;;
4933;SDS011;2482;49.154;8.254;2024-02-16T13:40:01;2.40;;;1.30;;
4933;SDS011;2482;49.154;8.254;2024-02-16T13:42:39;5.33;;;2.03;;
4933;SDS011;2482;49.154;8.254;2024-02-16T13:45:14;5.33;;;1.77;;
4933;SDS011;2482;49.154;8.254;2024-02-16T13:47:50;5.30;;;2.30;;
4933;SDS011;2482;49.154;8.254;2024-02-16T13:50:32;2.27;;;1.30;;
4933;SDS011;2482;49.154;8.254;2024-02-16T13:53:04;3.13;;;1.37;;
4933;SDS011;2482;49.154;8.254;2024-02-16T13:55:42;2.10;;;1.30;;
4933;SDS011;2482;49.154;8.254;2024-02-16T13:58:20;2.83;;;1.80;;
4933;SDS011;2482;49.154;8.254;2024-02-16T14:00:56;3.33;;;1.47;;
4933;SDS011;2482;49.154;8.254;2024-02-16T14:03:31;4.80;;;1.60;;
4933;SDS011;2482;49.154;8.254;2024-02-16T14:06:01;3.63;;;1.17;;
4933;SDS011;2482;49.154;8.254;2024-02-16T14:08:30;3.37;;;1.57;;
4933;SDS011;2482;49.154;8.254;2024-02-16T14:11:00;9.03;;;1.77;;
4933;SDS011;2482;49.154;8.254;2024-02-16T14:13:33;3.10;;;2.00;;
4933;SDS011;2482;49.154;8.254;2024-02-16T14:16:10;3.13;;;2.10;;
4933;SDS011;2482;49.154;8.254;2024-02-16T14:18:45;6.20;;;2.10;;
4933;SDS011;2482;49.154;8.254;2024-02-16T14:21:15;4.03;;;1.97;;
4933;SDS011;2482;49.154;8.254;2024-02-16T14:23:55;3.00;;;1.90;;
4933;SDS011;2482;49.154;8.254;2024-02-16T14:26:37;3.47;;;1.93;;
4933;SDS011;2482;49.154;8.254;2024-02-16T14:29:08;2.20;;;1.70;;
4933;SDS011;2482;49.154;8.254;2024-02-16T14:31:41;5.53;;;2.50;;
4933;SDS011;2482;49.154;8.254;2024-02-16T14:34:13;4.33;;;1.93;;
4933;SDS011;2482;49.154;8.254;2024-02-16T14:36:48;4.27;;;2.17;;
4933;SDS011;2482;49.154;8.254;2024-02-16T14:39:20;3.37;;;2.43;;
4933;SDS011;2482;49.154;8.254;2024-02-16T14:41:50;3.37;;;2.10;;
4933;SDS011;2482;49.154;8.254;2024-02-16T14:44:19;2.97;;;1.80;;
4933;SDS011;2482;49.154;8.254;2024-02-16T14:46:49;2.10;;;1.33;;
4933;SDS011;2482;49.154;8.254;2024-02-16T14:49:25;6.00;;;1.90;;
4933;SDS011;2482;49.154;8.254;2024-02-16T14:52:03;3.50;;;2.07;;
4933;SDS011;2482;49.154;8.254;2024-02-16T14:54:40;3.00;;;2.00;;
4933;SDS011;2482;49.154;8.254;2024-02-16T14:57:11;2.77;;;1.70;;
4933;SDS011;2482;49.154;8.254;2024-02-16T14:59:42;3.43;;;1.83;;
4933;SDS011;2482;49.154;8.254;2024-02-16T15:02:14;4.73;;;1.97;;
4933;SDS011;2482;49.154;8.254;2024-02-16T15:04:42;3.90;;;2.50;;
4933;SDS011;2482;49.154;8.254;2024-02-16T15:07:19;5.27;;;2.60;;
4933;SDS011;2482;49.154;8.254;2024-02-16T15:09:55;6.73;;;3.50;;
4933;SDS011;2482;49.154;8.254;2024-02-16T15:12:27;4.97;;;2.53;;
4933;SDS011;2482;49.154;8.254;2024-02-16T15:15:06;11.23;;;3.10;;
4933;SDS011;2482;49.154;8.254;2024-02-16T15:17:35;5.10;;;2.33;;
4933;SDS011;2482;49.154;8.254;2024-02-16T15:20:09;6.63;;;2.20;;
4933;SDS011;2482;49.154;8.254;2024-02-16T15:22:39;4.90;;;2.03;;
4933;SDS011;2482;49.154;8.254;2024-02-16T15:25:19;3.50;;;2.20;;
4933;SDS011;2482;49.154;8.254;2024-02-16T15:27:53;2.43;;;1.97;;
4933;SDS011;2482;49.154;8.254;2024-02-16T15:30:22;3.93;;;2.27;;
4933;SDS011;2482;49.154;8.254;2024-02-16T15:33:04;3.80;;;2.30;;
4933;SDS011;2482;49.154;8.254;2024-02-16T15:35:40;5.70;;;2.87;;
4933;SDS011;2482;49.154;8.254;2024-02-16T15:38:09;4.23;;;2.13;;
4933;SDS011;2482;49.154;8.254;2024-02-16T15:40:45;4.40;;;2.30;;
4933;SDS011;2482;49.154;8.254;2024-02-16T15:43:17;3.40;;;1.80;;
4933;SDS011;2482;49.154;8.254;2024-02-16T15:45:54;2.40;;;1.90;;
4933;SDS011;2482;49.154;8.254;2024-02-16T15:48:30;2.87;;;2.00;;
4933;SDS011;2482;49.154;8.254;2024-02-16T15:50:59;4.60;;;2.00;;
4933;SDS011;2482;49.154;8.254;2024-02-16T15:53:32;2.40;;;1.90;;
4933;SDS011;2482;49.154;8.254;2024-02-16T15:56:03;6.17;;;1.97;;
4933;SDS011;2482;49.154;8.254;2024-02-16T15:58:37;3.83;;;1.63;;
4933;SDS011;2482;49.154;8.254;2024-02-16T16:01:10;4.60;;;2.63;;
4933;SDS011;2482;49.154;8.254;2024-02-16T16:03:47;4.90;;;2.10;;
4933;SDS011;2482;49.154;8.254;2024-02-16T16:06:24;4.00;;;1.80;;
4933;SDS011;2482;49.154;8.254;2024-02-16T16:08:55;2.40;;;1.60;;
4933;SDS011;2482;49.154;8.254;2024-02-16T16:11:23;4.70;;;1.73;;
4933;SDS011;2482;49.154;8.254;2024-02-16T16:14:02;3.53;;;1.97;;
4933;SDS011;2482;49.154;8.254;2024-02-16T16:16:29;4.33;;;2.10;;
4933;SDS011;2482;49.154;8.254;2024-02-16T16:18:59;3.10;;;1.73;;
4933;SDS011;2482;49.154;8.254;2024-02-16T16:21:38;3.57;;;1.90;;
4933;SDS011;2482;49.154;8.254;2024-02-16T16:24:11;8.50;;;2.10;;
4933;SDS011;2482;49.154;8.254;2024-02-16T16:26:43;5.63;;;2.00;;